Flight Track Log - Related Links

Times and Time Zones

All times are in EDT time to prevent confusion due to time zone crossing. See the GJS3657 flight status page for this flight to view local times or setup timezone preferences in your user account.


Time Position Orientation Groundspeed Altitude Reporting Facility
EDT Latitude Longitude Course Direction KTS MPH feet Rate Location/Type
Thu 12:47:41 PM 39.9333 -104.6333 75° East 206 237 7,800  Level Denver TRACON
Thu 12:48:41 PM 39.9500 -104.5500 75° East 264 304 8,900 1,450 Climbing Denver TRACON
Thu 12:49:41 PM 39.9500 -104.4500 90° East 280 322 10,700 1,550 Climbing Denver TRACON
Thu 12:50:41 PM 39.9500 -104.3500 90° East 280 322 12,000 684 Climbing Denver TRACON
Thu 12:51:35 PM 39.9500 -104.2667 90° East 274 315 12,000  Level Denver TRACON
Thu 12:52:22 PM 39.9508 -104.1911 89° East 268 308 12,000  Level Denver Center
Thu 12:53:24 PM 39.9497 -104.0861 91° East 270 311 12,000  Level Denver Center
Thu 12:54:26 PM 39.9386 -103.9869 98° East 281 323 12,000  Level Denver Center
Thu 12:55:28 PM 39.8728 -103.9783 174° South 231 266 12,000  Level Denver Center
Thu 12:56:30 PM 39.8200 -104.0108 205° Southwest 218 251 12,000  Level Denver Center
Thu 12:57:32 PM 39.7697 -104.0669 221° Southwest 223 257 12,000 -194 Level Denver Center
Thu 12:58:34 PM 39.7214 -104.1206 220° Southwest 227 261 11,600 -480 Descending Denver Center
Thu 12:59:37 PM 39.6678 -104.1842 222° Southwest 243 280 11,000 -286 Descending Denver Center
Thu 01:00:40 PM 39.6244 -104.2356 222° Southwest 215 247 11,000  Level Denver Center
Thu 01:01:42 PM 39.6544 -104.2892 306° West 239 275 11,000  Level Denver Center
Thu 01:02:56 PM 39.7303 -104.2872 North 271 312 11,000  Level Denver Center
Thu 01:03:58 PM 39.7514 -104.1986 73° East 266 306 11,000  Level Denver Center
Thu 01:05:00 PM 39.6856 -104.1892 174° South 221 254 11,000  Level Denver Center
Thu 01:06:02 PM 39.6378 -104.1878 179° South 221 254 11,000  Level Denver Center
Thu 01:07:04 PM 39.5628 -104.2114 194° South 240 276 11,000  Level Denver Center
Thu 01:08:06 PM 39.5728 -104.3006 278° West 256 295 11,000  Level Denver Center
Thu 01:09:09 PM 39.5892 -104.3928 283° West 261 300 11,000  Level Denver Center
Thu 01:10:11 PM 39.6086 -104.4931 284° West 265 305 11,000 -387 Level Denver Center
Thu 01:11:13 PM 39.6264 -104.5789 285° West 248 285 10,200 -1,161 Descending Denver Center
Thu 01:12:15 PM 39.6525 -104.6675 291° West 257 296 8,600 -1,161 Descending Denver Center
Thu 01:13:17 PM 39.7133 -104.6975 339° North 236 272 7,800 -919 Descending Denver Center
Thu 01:14:19 PM 39.7731 -104.6975 360° North 199 229 6,700 -919 Descending Denver Center
Thu 01:15:21 PM 39.8239 -104.6969 360° North 186 214 5,900 -677 Descending Denver Center
Thu 01:16:23 PM 39.8714 -104.6964 North 152 175 5,300 -581 Descending Denver Center
Thu 01:18:00 PM 39.9688 -104.5102 80° East  Level Estimated
Thu 01:25:00 PM 39.6489 -104.2260 242° Southwest  Level FlightAware Approximate
Thu 01:26:00 PM 39.5980 -104.3481 242° Southwest  Level FlightAware Approximate
Thu 01:27:00 PM 39.6276 -104.3031 54° Northeast  Level FlightAware Approximate
Thu 01:28:00 PM 39.6898 -104.1901 54° Northeast  Level FlightAware Approximate
Thu 01:29:00 PM 39.7519 -104.0770 54° Northeast  Level FlightAware Approximate
Thu 01:30:00 PM 39.8313 -103.9854 38° Northeast  Level FlightAware Approximate
Thu 01:31:00 PM 39.9087 -103.8893 44° Northeast  Level FlightAware Approximate
Thu 01:32:00 PM 39.9877 -103.7956 37° Northeast  Level FlightAware Approximate
Thu 01:33:00 PM 40.0297 -103.6762 79° East  Level FlightAware Approximate
Thu 01:34:00 PM 40.0492 -103.5389 79° East  Level FlightAware Approximate
Thu 01:35:00 PM 40.0737 -103.4029 77° East  Level FlightAware Approximate
Thu 01:36:00 PM 40.0998 -103.2674 75° East  Level FlightAware Approximate
Thu 01:37:00 PM 40.1227 -103.1309 78° East  Level FlightAware Approximate
Thu 01:38:00 PM 40.1455 -102.9942 78° East  Level FlightAware Approximate
Thu 01:39:00 PM 40.1638 -102.8564 81° East  Level FlightAware Approximate
Thu 01:40:00 PM 40.1763 -102.7184 75° East  Level FlightAware Approximate
Thu 01:41:00 PM 40.2028 -102.5828 78° East  Level FlightAware Approximate
Thu 01:42:00 PM 40.2249 -102.4458 78° East  Level FlightAware Approximate
Thu 01:43:00 PM 40.2468 -102.3087 78° East  Level FlightAware Approximate
Thu 01:44:00 PM 40.2684 -102.1715 79° East  Level FlightAware Approximate
Thu 01:45:00 PM 40.2881 -102.0338 79° East  Level FlightAware Approximate
Thu 01:46:00 PM 40.3083 -101.8961 79° East  Level FlightAware Approximate
Thu 01:47:00 PM 40.3295 -101.7587 79° East  Level FlightAware Approximate
Thu 01:48:00 PM 40.3405 -101.6664 82° East  Level FlightAware Approximate
Thu 01:49:00 PM 40.3502 -101.5739 82° East  Level FlightAware Approximate
Thu 01:50:00 PM 40.3599 -101.4814 82° East  Level FlightAware Approximate
Thu 01:51:00 PM 40.3725 -101.3897 74° East  Level FlightAware Approximate
Thu 01:52:00 PM 40.3920 -101.2998 74° East  Level FlightAware Approximate
Thu 01:53:00 PM 40.4114 -101.2098 74° East  Level FlightAware Approximate
Thu 01:54:00 PM 40.4307 -101.1199 74° East  Level FlightAware Approximate
Thu 01:55:00 PM 40.4499 -101.0298 74° East  Level FlightAware Approximate
Thu 01:56:00 PM 40.4691 -100.9397 74° East  Level FlightAware Approximate
Thu 01:57:00 PM 40.4853 -100.8632 74° East  Level FlightAware Approximate
Thu 01:58:00 PM 40.5015 -100.7866 74° East  Level FlightAware Approximate
Thu 01:59:00 PM 40.5177 -100.7100 75° East  Level FlightAware Approximate
Thu 02:00:00 PM 40.5337 -100.6333 75° East  Level FlightAware Approximate
Thu 02:01:00 PM 40.5498 -100.5566 75° East  Level FlightAware Approximate
Thu 02:02:00 PM 40.5657 -100.4799 75° East  Level FlightAware Approximate
Thu 02:03:00 PM 40.5816 -100.4031 75° East  Level FlightAware Approximate
Thu 02:04:00 PM 40.5975 -100.3263 75° East  Level FlightAware Approximate
Thu 02:05:00 PM 40.6133 -100.2495 75° East  Level FlightAware Approximate
Thu 02:06:00 PM 40.6288 -100.1725 75° East  Level FlightAware Approximate
Thu 02:07:00 PM 40.6442 -100.0955 75° East  Level FlightAware Approximate
Thu 02:08:00 PM 40.6571 -100.0307 75° East  Level FlightAware Approximate
Thu 02:09:00 PM 40.6699 -99.9660 75° East  Level FlightAware Approximate
Thu 02:10:00 PM 40.6827 -99.9012 75° East  Level FlightAware Approximate
Thu 02:11:00 PM 40.6954 -99.8364 75° East  Level FlightAware Approximate
Thu 02:12:00 PM 40.7081 -99.7716 75° East  Level FlightAware Approximate
Thu 02:13:00 PM 40.7208 -99.7068 76° East  Level FlightAware Approximate
Thu 02:14:00 PM 40.7334 -99.6419 76° East  Level FlightAware Approximate
Thu 02:15:00 PM 40.7460 -99.5770 76° East  Level FlightAware Approximate
Thu 02:16:00 PM 40.7593 -99.5084 76° East  Level FlightAware Approximate
Thu 02:17:00 PM 40.7726 -99.4397 76° East  Level FlightAware Approximate
Thu 02:18:00 PM 40.7858 -99.3709 76° East  Level FlightAware Approximate
Thu 02:19:00 PM 40.7989 -99.3022 76° East  Level FlightAware Approximate
Thu 02:20:00 PM 40.8121 -99.2334 76° East  Level FlightAware Approximate
Thu 02:21:00 PM 40.8252 -99.1646 76° East  Level FlightAware Approximate
Thu 02:22:00 PM 40.8382 -99.0957 76° East  Level FlightAware Approximate
Thu 02:23:00 PM 40.8512 -99.0268 76° East  Level FlightAware Approximate
Thu 02:24:00 PM 40.8640 -98.9579 76° East  Level FlightAware Approximate
Thu 02:25:00 PM 40.8767 -98.8889 76° East  Level FlightAware Approximate
Thu 02:26:00 PM 40.8894 -98.8198 76° East  Level FlightAware Approximate
Thu 02:27:00 PM 40.9020 -98.7508 76° East  Level FlightAware Approximate
Thu 02:28:00 PM 40.9146 -98.6817 76° East  Level FlightAware Approximate
Thu 02:29:00 PM 40.9271 -98.6126 76° East  Level FlightAware Approximate
Thu 02:30:00 PM 40.9396 -98.5435 77° East  Level FlightAware Approximate
Thu 02:31:00 PM 40.9521 -98.4743 77° East  Level FlightAware Approximate
Thu 02:32:00 PM 40.9645 -98.4052 77° East  Level FlightAware Approximate
Thu 02:33:00 PM 40.9761 -98.3403 77° East  Level FlightAware Approximate
Thu 02:34:00 PM 40.9931 -98.2783 59° Northeast  Level FlightAware Approximate
Thu 02:35:00 PM 41.0189 -98.2211 59° Northeast  Level FlightAware Approximate
Thu 02:36:00 PM 41.0447 -98.1638 59° Northeast  Level FlightAware Approximate
Thu 02:37:00 PM 41.0705 -98.1065 59° Northeast  Level FlightAware Approximate
Thu 02:38:00 PM 41.0962 -98.0491 59° Northeast  Level FlightAware Approximate
Thu 02:39:00 PM 41.1220 -97.9917 59° Northeast  Level FlightAware Approximate
Thu 02:40:00 PM 41.1476 -97.9342 59° Northeast  Level FlightAware Approximate

Login

Don't have an account? Register now (free) for customized features, flight alerts, and more!